Historyczne dane pomiarowe

Dodano dane terminowe – wersja testowa.

Dane z okresu 1951-2019

Wersja bazy: 1.34 [2019-03-16, lista zmian], aktualizacja planowana na 2019-04-15

Dane meteo z obszaru Polski uzyskane na podstawie danych udostępnionych przez Instytut Meteorologii i Gospodarki Wodnej – Państwowy Instytut Badawczy.

 

Wybierz Datę:    

       

TemperaturaWilgotnośćWiatrCiśnienieOpadyŚniegCzas trwania zjawisk
 Stacja t tx tn tng RH VA  wxwx mslp ppp RRR   cm mm wxwxwxwxwxwxwx
1999-08-14 16.0 22.3 9.4 4.8 71.5- 2.7 2.0---- 0.4------------
1999-08-13 15.0 18.4 12.2 10.8 83.5- 7.7 0.7---- 0.0------------
1999-08-12 15.4 18.5 12.4 8.6 81.8- 8.0 2.0---- 0.0------------
1999-08-11 18.3 23.1 15.8 13.0 81.3- 5.0 4.3---- 0.4------------
1999-08-10 18.7 21.4 15.6 12.8 92.8- 7.7 3.7---- 1.0------------
1999-08-09 22.0 26.4 18.5 16.5 86.3- 4.3 2.3---- 4.7------------
1999-08-08 23.4 29.5 17.4 15.2 72.5- 3.3 3.0---- 0.0------------
1999-08-07 20.9 30.7 13.9 11.3 86.0- 5.3 0.7---- 0.1------------
1999-08-06 21.7 26.8 16.4 13.4 77.5- 4.3 1.3---- 0.5------------
1999-08-05 18.6 27.0 9.8 5.9 74.0- 5.3 2.0---- 0.0------------
1999-08-04 18.3 26.1 10.0 6.7 74.8- 3.0 0.7---- 0.0------------
1999-08-03 17.7 25.7 9.7 6.8 84.3- 2.0 0.0---- 0.0------------
1999-08-02 18.8 25.3 11.3 7.7 78.3- 5.3 2.0---- 0.0------------
1999-08-01 19.1 26.1 11.4 9.0 77.5- 3.0 2.0---- 0.0------------
1999-07-31 19.4 26.1 11.5 8.9 72.5- 3.0 2.7---- 0.0------------
1999-07-30 18.8 24.7 11.5 8.3 76.8- 3.7 2.7---- 0.0------------
1999-07-29 18.0 24.3 12.0 8.8 81.5- 5.3 3.7---- 0.0------------
1999-07-28 18.3 24.0 12.5 11.2 77.0- 2.0 1.7---- 0.0------------
1999-07-27 18.2 23.4 14.8 14.8 86.3- 6.3 2.7---- 0.0------------
1999-07-26 19.6 26.8 10.8 8.1 78.8- 3.3 3.0---- 0.0------------
1999-07-25 17.9 25.7 7.9 5.4 75.5- 0.7 2.0---- 0.0------------
1999-07-24 16.5 19.4 13.4 12.7 83.5- 5.7 1.7---- 0.0------------
1999-07-23 15.5 20.5 12.4 11.1 90.3- 7.3 3.3---- 0.0------------
1999-07-22 18.5 23.2 16.0 13.2 77.3- 6.7 2.0---- 0.0------------
1999-07-21 22.2 27.2 17.7 15.7 77.8- 5.7 5.3---- 0.8------------
1999-07-20 22.0 29.8 16.2 11.7 72.3- 1.0 3.0---- 0.6------------
1999-07-19 21.7 28.6 13.4 10.3 71.3- 2.3 1.7---- 0.0------------
1999-07-18 20.1 27.2 11.7 9.3 73.5- 2.3 1.7---- 0.0------------
1999-07-17 17.7 23.9 9.6 7.0 84.0- 2.7 0.0---- 0.0------------
1999-07-16 16.2 20.5 11.4 8.5 86.3- 4.7 0.7---- 0.0------------
1999-07-15 15.5 18.7 13.2 10.6 90.0- 8.0 2.0---- 2.0------------
1999-07-14 20.0 24.7 17.1 16.3 83.3- 6.3 3.7---- 6.1------------
1999-07-13 21.3 26.9 15.7 13.8 81.8- 4.3 4.0---- 0.0------------
1999-07-12 20.8 25.7 17.5 15.7 94.8- 7.3 0.0---- 0.5------------
1999-07-11 18.7 21.6 15.8 14.5 92.0- 8.0 2.3---- 3.2------------
1999-07-10 20.2 23.3 16.7 16.3 87.5- 5.0 4.3---- 0.0------------
1999-07-09 16.7 18.3 14.2 13.8 98.5- 8.0 4.3---- 0.3------------
1999-07-08 14.9 16.4 13.9 13.7 96.3- 8.0 5.7---- 4.0------------
1999-07-07 18.0 21.7 16.4 16.0 96.5- 8.0 2.0---- 11.7------------
1999-07-06 23.9 30.5 20.1 17.3 87.8- 5.0 2.7---- 42.2------------
1999-07-05 24.4 29.7 17.7 13.9 67.8- 2.0 4.0---- 0.0------------
1999-07-04 25.0 31.6 17.4 13.9 70.8- 1.0 2.7---- 0.0------------
1999-07-03 19.6 25.4 11.6 9.5 80.3- 1.0 1.7---- 0.0------------
1999-07-02 19.3 23.3 14.7 12.9 86.8- 6.0 0.0---- 0.0------------
1999-07-01 19.3 23.2 16.0 14.7 95.0- 8.0 2.0---- 7.4------------
1999-06-30 19.6 25.2 12.2 9.8 83.5- 3.0 2.0---- 0.0------------
1999-06-29 18.4 22.5 12.7 9.2 81.0- 4.0 1.7---- 0.0------------
1999-06-28 19.2 25.3 14.6 12.5 86.0- 5.3 3.3---- 0.3------------
1999-06-27 18.7 23.5 15.1 11.0 78.5- 8.0 5.0---- 6.5------------
1999-06-26 16.0 21.3 9.9 8.4 92.0- 5.0 2.7---- 0.0------------
1999-06-25 12.6 17.6 7.0 4.3 89.5- 6.0 2.0---- 8.6------------
1999-06-24 11.6 16.1 4.9 2.2 85.8- 5.7 1.7---- 2.1------------
1999-06-23 12.8 16.6 9.2 8.5 80.8- 4.7 3.7---- 0.0------------
1999-06-22 9.3 11.4 7.8 7.2 98.3- 8.0 4.7---- 20.2------------
1999-06-21 15.2 19.9 11.4 10.8 97.0- 7.3 2.7---- 16.6------------
1999-06-20 17.9 22.4 13.2 10.9 88.5- 6.0 2.3---- 0.0------------
1999-06-19 15.0 18.1 12.3 12.0 95.8- 7.7 1.3---- 0.0------------
1999-06-18 15.5 19.6 13.1 11.4 96.0- 7.7 2.0---- 20.8------------
1999-06-17 17.9 22.2 13.3 11.3 90.3- 7.7 2.7---- 0.0------------
1999-06-16 16.8 20.2 14.5 13.9 94.5- 8.0 2.0---- 0.2------------
232.3 ms

 

Źródłem pochodzenia danych jest Instytut Meteorologii i Gospodarki Wodnej – Państwowy Instytut Badawczy. Dane Instytutu Meteorologii i Gospodarki Wodnej – Państwowego Instytutu Badawczego zostały przetworzone.

Dane źródłowe można odnaleźć na stronie https://dane.imgw.pl